createdAt,value
2023-04-30T00:02:19.923Z,8.42
2023-04-30T00:04:46.390Z,8.52
2023-04-30T00:07:12.821Z,8.42
2023-04-30T00:09:39.328Z,8.28
2023-04-30T00:12:05.902Z,8.32
2023-04-30T00:14:32.337Z,8.31
2023-04-30T00:16:58.703Z,8.31
2023-04-30T00:19:25.180Z,8.29
2023-04-30T00:21:51.579Z,8.38
2023-04-30T00:24:17.976Z,8.23
2023-04-30T00:26:44.374Z,8.13
2023-04-30T00:29:11.217Z,8.08
2023-04-30T00:31:37.705Z,8.30
2023-04-30T00:34:04.163Z,8.19
2023-04-30T00:36:31.768Z,8.04
2023-04-30T00:38:58.157Z,7.89
2023-04-30T00:41:25.732Z,7.76
2023-04-30T00:43:52.119Z,7.73
2023-04-30T00:46:18.597Z,7.76
2023-04-30T00:48:45.060Z,7.83
2023-04-30T00:51:11.545Z,7.78
2023-04-30T00:53:39.321Z,7.73
2023-04-30T00:56:06.038Z,7.72
2023-04-30T00:58:32.421Z,7.84
2023-04-30T01:00:59.013Z,7.88
2023-04-30T01:03:25.618Z,7.59
2023-04-30T01:05:53.630Z,7.66
2023-04-30T01:08:20.245Z,7.48
2023-04-30T01:11:17.165Z,7.52
2023-04-30T01:13:58.867Z,7.27
2023-04-30T01:16:41.655Z,7.33
2023-04-30T01:19:34.249Z,7.37
2023-04-30T01:22:01.613Z,7.41
2023-04-30T01:24:36.984Z,7.19
2023-04-30T01:27:21.565Z,7.12
2023-04-30T01:29:48.271Z,7.25
2023-04-30T01:32:14.649Z,7.28
2023-04-30T01:34:41.056Z,7.20
2023-04-30T01:37:22.872Z,7.23
2023-04-30T01:40:25.179Z,7.44
2023-04-30T01:43:10.393Z,7.24
2023-04-30T01:45:55.330Z,7.14
2023-04-30T01:48:47.432Z,7.18
2023-04-30T01:51:19.928Z,7.20
2023-04-30T01:53:47.059Z,7.24
2023-04-30T01:56:32.903Z,7.11
2023-04-30T01:58:59.968Z,7.01
2023-04-30T02:01:30.213Z,6.89
2023-04-30T02:03:56.963Z,6.92
2023-04-30T02:06:29.988Z,6.96
2023-04-30T02:09:03.175Z,6.97
2023-04-30T02:11:29.939Z,6.78
2023-04-30T02:13:56.318Z,6.80
2023-04-30T02:16:23.350Z,6.77
2023-04-30T02:18:49.786Z,6.84
2023-04-30T02:21:16.238Z,6.81
2023-04-30T02:23:42.645Z,7.04
2023-04-30T02:26:09.046Z,7.07
2023-04-30T02:28:36.001Z,6.91
2023-04-30T02:31:02.423Z,6.93
2023-04-30T02:33:28.875Z,6.84
2023-04-30T02:35:55.421Z,6.81
2023-04-30T02:38:21.887Z,6.63
2023-04-30T02:40:48.269Z,6.67
2023-04-30T02:43:14.663Z,6.73
2023-04-30T02:45:41.510Z,6.52
2023-04-30T02:48:08.094Z,6.37
2023-04-30T02:50:34.533Z,6.69
2023-04-30T02:53:00.945Z,6.64
2023-04-30T02:55:27.404Z,6.61
2023-04-30T02:57:53.848Z,6.40
2023-04-30T03:00:20.458Z,6.56
2023-04-30T03:02:47.015Z,6.59
2023-04-30T03:05:15.017Z,6.60
2023-04-30T03:07:41.909Z,6.50
2023-04-30T03:10:08.968Z,6.50
2023-04-30T03:12:35.355Z,6.33
2023-04-30T03:15:01.775Z,6.47
2023-04-30T03:17:28.192Z,6.46
2023-04-30T03:19:54.802Z,6.40
2023-04-30T03:22:23.707Z,6.14
2023-04-30T03:24:50.087Z,6.21
2023-04-30T03:27:16.944Z,6.20
2023-04-30T03:29:43.335Z,6.06
2023-04-30T03:32:09.734Z,5.95
2023-04-30T03:34:36.121Z,6.02
2023-04-30T03:37:03.801Z,5.71
2023-04-30T03:39:30.306Z,5.81
2023-04-30T03:41:56.671Z,5.82
2023-04-30T03:44:23.215Z,5.87
2023-04-30T03:46:49.630Z,5.99
2023-04-30T03:49:16.282Z,5.93
2023-04-30T03:51:42.802Z,5.93
2023-04-30T03:54:09.347Z,6.00
2023-04-30T03:56:36.549Z,5.98
2023-04-30T03:59:02.989Z,5.99
2023-04-30T04:01:29.757Z,5.91
2023-04-30T04:03:56.214Z,5.71
2023-04-30T04:06:22.824Z,5.67
2023-04-30T04:08:49.274Z,5.81
2023-04-30T04:11:15.805Z,5.84
2023-04-30T04:13:42.180Z,5.86
2023-04-30T04:16:09.489Z,5.80
2023-04-30T04:18:36.509Z,5.82
2023-04-30T04:21:02.986Z,5.92
2023-04-30T04:23:29.408Z,6.00
2023-04-30T04:25:57.400Z,5.88
2023-04-30T04:28:23.889Z,5.80
2023-04-30T04:30:50.245Z,5.86
2023-04-30T04:33:17.150Z,5.97
2023-04-30T04:35:43.539Z,6.04
2023-04-30T04:38:09.917Z,5.99
2023-04-30T04:40:37.181Z,5.95
2023-04-30T04:43:03.684Z,5.95
2023-04-30T04:45:30.056Z,6.01
2023-04-30T04:47:56.488Z,6.14
2023-04-30T04:50:22.990Z,6.21
2023-04-30T04:52:49.399Z,6.20
2023-04-30T04:55:16.072Z,6.25
2023-04-30T04:57:42.985Z,6.09
2023-04-30T05:00:10.395Z,6.21
2023-04-30T05:02:36.864Z,6.08
2023-04-30T05:05:03.385Z,6.31
2023-04-30T05:07:29.936Z,6.37
2023-04-30T05:09:56.768Z,6.43
2023-04-30T05:12:23.445Z,6.41
2023-04-30T05:14:51.166Z,6.49
2023-04-30T05:17:17.562Z,6.51
2023-04-30T05:19:44.101Z,6.42
2023-04-30T05:22:10.790Z,6.41
2023-04-30T05:24:37.186Z,6.40
2023-04-30T05:27:05.040Z,6.59
2023-04-30T05:29:31.712Z,6.69
2023-04-30T05:31:58.157Z,6.62
2023-04-30T05:34:24.629Z,6.87
2023-04-30T05:36:51.050Z,6.88
2023-04-30T05:39:17.517Z,6.80
2023-04-30T05:41:43.986Z,7.00
2023-04-30T05:44:10.564Z,6.98
2023-04-30T05:46:37.046Z,6.82
2023-04-30T05:49:03.457Z,7.10
2023-04-30T05:51:29.902Z,7.09
2023-04-30T05:53:57.471Z,7.19
2023-04-30T05:56:24.807Z,7.33
2023-04-30T05:58:52.454Z,7.56
2023-04-30T06:01:22.222Z,7.24
2023-04-30T06:03:48.684Z,7.60
2023-04-30T06:06:15.286Z,7.34
2023-04-30T06:08:45.358Z,7.48
2023-04-30T06:11:12.960Z,7.60
2023-04-30T06:13:39.850Z,7.85
2023-04-30T06:16:08.086Z,7.84
2023-04-30T06:18:34.592Z,7.69
2023-04-30T06:21:00.992Z,8.17
2023-04-30T06:23:27.350Z,8.20
2023-04-30T06:25:53.713Z,8.22
2023-04-30T06:28:20.172Z,8.34
2023-04-30T06:30:47.452Z,8.67
2023-04-30T06:33:13.817Z,8.85
2023-04-30T06:35:40.470Z,8.86
2023-04-30T06:38:08.018Z,8.70
2023-04-30T06:40:34.808Z,8.81
2023-04-30T06:43:01.279Z,8.85
2023-04-30T06:45:28.754Z,9.09
2023-04-30T06:47:55.169Z,9.18
2023-04-30T06:50:21.811Z,9.31
2023-04-30T06:52:48.498Z,8.99
2023-04-30T06:55:14.873Z,9.36
2023-04-30T06:57:41.262Z,9.57
2023-04-30T07:00:08.820Z,9.72
2023-04-30T07:02:35.953Z,9.72
2023-04-30T07:05:02.643Z,9.70
2023-04-30T07:07:29.096Z,9.53
2023-04-30T07:09:55.624Z,9.72
2023-04-30T07:12:22.483Z,9.70
2023-04-30T07:14:48.950Z,9.91
2023-04-30T07:17:15.356Z,10.16
2023-04-30T07:19:41.949Z,10.15
2023-04-30T07:22:08.337Z,10.00
2023-04-30T07:24:34.697Z,10.07
2023-04-30T07:27:03.572Z,9.89
2023-04-30T07:29:30.302Z,10.15
2023-04-30T07:31:56.883Z,9.97
2023-04-30T07:34:23.382Z,10.35
2023-04-30T07:36:49.785Z,10.71
2023-04-30T07:39:16.832Z,10.88
2023-04-30T07:41:43.596Z,10.56
2023-04-30T07:44:11.506Z,10.60
2023-04-30T07:46:38.097Z,10.40
2023-04-30T07:49:04.673Z,10.59
2023-04-30T07:51:32.838Z,11.07
2023-04-30T07:54:00.644Z,11.01
2023-04-30T07:56:27.238Z,11.09
2023-04-30T07:58:53.610Z,11.14
2023-04-30T08:01:19.993Z,11.24
2023-04-30T08:03:46.601Z,11.35
2023-04-30T08:06:13.160Z,11.74
2023-04-30T08:08:39.667Z,11.40
2023-04-30T08:11:06.157Z,11.36
2023-04-30T08:13:32.598Z,11.42
2023-04-30T08:15:59.031Z,11.44
2023-04-30T08:18:25.412Z,11.37
2023-04-30T08:20:51.823Z,11.62
2023-04-30T08:23:18.197Z,12.15
2023-04-30T08:25:44.704Z,12.22
2023-04-30T08:28:11.106Z,12.42
2023-04-30T08:30:37.506Z,12.71
2023-04-30T08:33:04.036Z,12.66
2023-04-30T08:35:30.550Z,12.50
2023-04-30T08:37:57.145Z,12.07
2023-04-30T08:40:33.785Z,12.08
2023-04-30T08:43:11.530Z,12.45
2023-04-30T08:45:37.999Z,12.46
2023-04-30T08:48:05.358Z,12.95
2023-04-30T08:50:31.846Z,13.16
2023-04-30T08:52:59.245Z,13.03
2023-04-30T08:55:27.475Z,13.06
2023-04-30T08:57:54.172Z,12.98
2023-04-30T09:00:21.003Z,13.21
2023-04-30T09:02:48.324Z,13.24
2023-04-30T09:05:15.876Z,13.47
2023-04-30T09:07:52.002Z,13.36
2023-04-30T09:10:27.752Z,13.50
2023-04-30T09:13:05.287Z,13.58
2023-04-30T09:15:32.328Z,13.66
2023-04-30T09:18:18.324Z,13.98
2023-04-30T09:21:01.950Z,14.49
2023-04-30T09:23:29.137Z,14.62
2023-04-30T09:25:56.486Z,14.47
2023-04-30T09:28:24.749Z,14.83
2023-04-30T09:30:51.846Z,14.97
2023-04-30T09:33:18.265Z,14.23
2023-04-30T09:35:44.899Z,14.51
2023-04-30T09:38:31.786Z,14.98
2023-04-30T09:41:00.107Z,15.06
2023-04-30T09:43:27.714Z,14.74
2023-04-30T09:45:54.146Z,15.20
2023-04-30T09:48:24.640Z,15.39
2023-04-30T09:50:51.934Z,15.10
2023-04-30T09:53:20.739Z,15.05
2023-04-30T09:55:48.669Z,15.55
2023-04-30T09:58:16.797Z,15.43
2023-04-30T10:00:45.054Z,15.69
2023-04-30T10:03:13.475Z,15.98
2023-04-30T10:05:44.258Z,16.06
2023-04-30T10:08:14.151Z,16.03
2023-04-30T10:10:41.302Z,16.19
2023-04-30T10:13:10.828Z,16.12
2023-04-30T10:15:43.541Z,16.14
2023-04-30T10:18:15.031Z,16.14
2023-04-30T10:20:41.795Z,16.41
2023-04-30T10:23:08.548Z,16.20
2023-04-30T10:25:35.520Z,15.78
2023-04-30T10:28:04.691Z,16.16
2023-04-30T10:30:32.041Z,16.46
2023-04-30T10:33:16.305Z,16.47
2023-04-30T10:35:55.016Z,16.57
2023-04-30T10:38:24.915Z,16.71
2023-04-30T10:40:58.188Z,16.35
2023-04-30T10:43:25.400Z,16.54
2023-04-30T10:45:52.041Z,16.50
2023-04-30T10:48:25.414Z,16.06
2023-04-30T10:50:53.517Z,16.55
2023-04-30T10:53:20.794Z,16.37
2023-04-30T10:56:08.847Z,16.66
2023-04-30T10:58:37.074Z,16.39
2023-04-30T11:01:11.329Z,16.56
2023-04-30T11:03:40.820Z,16.71
2023-04-30T11:06:14.623Z,16.68
2023-04-30T11:08:46.107Z,16.55
2023-04-30T11:11:18.492Z,16.35
2023-04-30T11:13:46.318Z,16.34
2023-04-30T11:16:13.171Z,17.16
2023-04-30T11:18:45.648Z,16.61
2023-04-30T11:21:12.559Z,17.02
2023-04-30T11:23:43.380Z,17.73
2023-04-30T11:26:10.480Z,17.73
2023-04-30T11:28:37.956Z,17.78
2023-04-30T11:31:04.941Z,17.13
2023-04-30T11:33:32.415Z,17.20
2023-04-30T11:36:00.140Z,17.57
2023-04-30T11:38:29.553Z,18.53
2023-04-30T11:40:57.416Z,18.53
2023-04-30T11:43:30.989Z,18.39
2023-04-30T11:46:09.314Z,18.27
2023-04-30T11:48:37.903Z,18.00
2023-04-30T11:51:05.536Z,18.18
2023-04-30T11:53:32.830Z,18.57
2023-04-30T11:56:03.607Z,18.36
2023-04-30T11:58:34.296Z,18.44
2023-04-30T12:01:01.367Z,17.78
2023-04-30T12:03:27.949Z,18.12
2023-04-30T12:05:54.631Z,19.62
2023-04-30T12:08:21.024Z,19.32
2023-04-30T12:10:47.562Z,19.81
2023-04-30T12:13:14.641Z,18.96
2023-04-30T12:15:40.992Z,18.86
2023-04-30T12:18:13.419Z,20.67
2023-04-30T12:20:40.478Z,21.70
2023-04-30T12:23:07.583Z,22.96
2023-04-30T12:25:40.606Z,21.96
2023-04-30T12:28:06.989Z,20.04
2023-04-30T12:30:33.553Z,17.92
2023-04-30T12:33:00.820Z,17.23
2023-04-30T12:35:29.322Z,18.55
2023-04-30T12:38:06.994Z,19.41
2023-04-30T12:40:33.683Z,20.16
2023-04-30T12:43:05.122Z,19.72
2023-04-30T12:45:44.666Z,18.03
2023-04-30T12:48:11.670Z,19.64
2023-04-30T12:50:39.170Z,19.64
2023-04-30T12:53:07.422Z,19.82
2023-04-30T12:55:35.180Z,18.99
2023-04-30T12:58:06.991Z,19.60
2023-04-30T13:00:44.239Z,20.12
2023-04-30T13:03:12.155Z,20.70
2023-04-30T13:05:40.043Z,22.64
2023-04-30T13:08:06.495Z,22.19
2023-04-30T13:10:32.996Z,22.81
2023-04-30T13:12:59.992Z,22.84
2023-04-30T13:15:26.439Z,22.53
2023-04-30T13:17:53.815Z,21.77
2023-04-30T13:20:20.233Z,22.23
2023-04-30T13:22:46.584Z,23.94
2023-04-30T13:25:12.988Z,24.46
2023-04-30T13:27:39.610Z,24.22
2023-04-30T13:30:06.600Z,24.36
2023-04-30T13:32:33.449Z,23.74
2023-04-30T13:34:59.830Z,21.53
2023-04-30T13:37:26.627Z,21.35
2023-04-30T13:39:53.442Z,21.52
2023-04-30T13:42:20.146Z,23.69
2023-04-30T13:44:48.628Z,23.29
2023-04-30T13:47:15.101Z,23.54
2023-04-30T13:49:41.506Z,23.39
2023-04-30T13:52:07.980Z,24.10
2023-04-30T13:54:34.371Z,24.88
2023-04-30T13:57:00.835Z,26.24
2023-04-30T13:59:27.333Z,24.98
2023-04-30T14:01:53.744Z,25.02
2023-04-30T14:04:20.301Z,24.49
2023-04-30T14:06:48.908Z,23.47
2023-04-30T14:09:15.433Z,21.17
2023-04-30T14:11:42.527Z,21.04
2023-04-30T14:14:09.107Z,22.98
2023-04-30T14:16:35.543Z,25.74
2023-04-30T14:19:01.973Z,26.42
2023-04-30T14:21:28.608Z,23.09
2023-04-30T14:23:55.561Z,21.10
2023-04-30T14:26:22.022Z,20.45
2023-04-30T14:28:48.429Z,19.59
2023-04-30T14:31:14.797Z,18.94
2023-04-30T14:33:41.197Z,19.29
2023-04-30T14:36:08.002Z,21.07
2023-04-30T14:38:34.626Z,21.17
2023-04-30T14:41:01.042Z,23.86
2023-04-30T14:43:27.410Z,23.43
2023-04-30T14:45:54.175Z,22.71
2023-04-30T14:48:20.776Z,22.76
2023-04-30T14:50:47.204Z,21.54
2023-04-30T14:53:14.247Z,21.09
2023-04-30T14:55:40.652Z,20.62
2023-04-30T14:58:07.112Z,20.15
2023-04-30T15:00:33.548Z,19.43
2023-04-30T15:03:00.127Z,19.48
2023-04-30T15:05:26.665Z,20.95
2023-04-30T15:07:53.409Z,20.77
2023-04-30T15:10:19.850Z,20.74
2023-04-30T15:12:46.222Z,23.30
2023-04-30T15:15:13.029Z,24.36
2023-04-30T15:17:39.673Z,23.38
2023-04-30T15:20:06.970Z,23.19
2023-04-30T15:22:33.427Z,24.11
2023-04-30T15:25:00.022Z,23.78
2023-04-30T15:27:28.071Z,24.52
2023-04-30T15:29:54.613Z,25.68
2023-04-30T15:32:21.127Z,25.99
2023-04-30T15:34:47.535Z,26.91
2023-04-30T15:37:13.926Z,26.80
2023-04-30T15:39:40.305Z,24.06
2023-04-30T15:42:06.677Z,23.42
2023-04-30T15:44:33.296Z,25.20
2023-04-30T15:46:59.841Z,25.95
2023-04-30T15:49:26.238Z,25.88
2023-04-30T15:51:52.642Z,26.99
2023-04-30T15:54:19.087Z,25.04
2023-04-30T15:56:45.688Z,26.01
2023-04-30T15:59:16.963Z,26.64
2023-04-30T16:01:44.826Z,27.35
2023-04-30T16:04:11.964Z,27.41
2023-04-30T16:06:38.442Z,25.73
2023-04-30T16:09:07.490Z,26.40
2023-04-30T16:11:34.896Z,26.78
2023-04-30T16:14:01.851Z,27.26
2023-04-30T16:16:29.072Z,26.10
2023-04-30T16:18:55.537Z,26.80
2023-04-30T16:21:23.667Z,26.02
2023-04-30T16:23:50.437Z,25.38
2023-04-30T16:26:19.766Z,24.93
2023-04-30T16:28:47.111Z,24.72
2023-04-30T16:31:15.435Z,25.22
2023-04-30T16:33:42.514Z,24.80
2023-04-30T16:36:09.921Z,25.69
2023-04-30T16:38:36.902Z,24.79
2023-04-30T16:41:03.599Z,24.46
2023-04-30T16:43:30.057Z,23.39
2023-04-30T16:45:56.557Z,21.53
2023-04-30T16:48:22.987Z,21.02
2023-04-30T16:50:49.373Z,19.85
2023-04-30T16:53:15.816Z,20.15
2023-04-30T16:55:43.138Z,20.65
2023-04-30T16:58:09.515Z,19.57
2023-04-30T17:00:36.626Z,20.06
2023-04-30T17:03:04.650Z,19.23
2023-04-30T17:05:31.255Z,19.30
2023-04-30T17:07:57.790Z,19.57
2023-04-30T17:10:25.435Z,19.21
2023-04-30T17:12:52.256Z,18.92
2023-04-30T17:15:20.151Z,18.98
2023-04-30T17:17:46.606Z,19.05
2023-04-30T17:20:13.098Z,18.51
2023-04-30T17:22:40.121Z,18.53
2023-04-30T17:25:06.718Z,18.16
2023-04-30T17:27:33.093Z,18.22
2023-04-30T17:29:59.573Z,17.85
2023-04-30T17:32:26.420Z,18.00
2023-04-30T17:34:52.998Z,18.05
2023-04-30T17:37:19.426Z,17.98
2023-04-30T17:39:46.344Z,18.17
2023-04-30T17:42:15.655Z,17.71
2023-04-30T17:44:42.137Z,17.58
2023-04-30T17:47:08.503Z,17.46
2023-04-30T17:49:34.945Z,17.53
2023-04-30T17:52:01.468Z,17.70
2023-04-30T17:54:30.951Z,17.43
2023-04-30T17:56:58.972Z,17.15
2023-04-30T17:59:27.550Z,17.31
2023-04-30T18:01:54.107Z,17.04
2023-04-30T18:04:20.629Z,17.05
2023-04-30T18:06:47.484Z,16.96
2023-04-30T18:09:14.711Z,16.76
2023-04-30T18:11:41.103Z,16.90
2023-04-30T18:14:07.869Z,16.59
2023-04-30T18:16:34.790Z,16.52
2023-04-30T18:19:01.267Z,16.37
2023-04-30T18:21:27.761Z,16.50
2023-04-30T18:23:54.926Z,16.14
2023-04-30T18:26:22.169Z,16.08
2023-04-30T18:28:48.685Z,16.01
2023-04-30T18:31:15.129Z,15.70
2023-04-30T18:33:41.915Z,15.86
2023-04-30T18:36:08.322Z,15.87
2023-04-30T18:38:34.859Z,15.82
2023-04-30T18:41:02.265Z,15.49
2023-04-30T18:43:28.711Z,15.55
2023-04-30T18:45:55.118Z,15.47
2023-04-30T18:48:22.938Z,15.30
2023-04-30T18:50:50.020Z,15.25
2023-04-30T18:53:17.070Z,15.05
2023-04-30T18:55:46.569Z,15.06
2023-04-30T18:58:12.981Z,14.81
2023-04-30T19:00:42.975Z,14.42
2023-04-30T19:03:09.933Z,14.63
2023-04-30T19:05:36.422Z,14.65
2023-04-30T19:08:03.204Z,14.45
2023-04-30T19:10:29.780Z,14.34
2023-04-30T19:12:56.234Z,14.60
2023-04-30T19:15:24.752Z,14.78
2023-04-30T19:17:51.204Z,14.59
2023-04-30T19:20:17.837Z,14.45
2023-04-30T19:22:44.209Z,14.43
2023-04-30T19:25:10.844Z,14.48
2023-04-30T19:27:37.313Z,14.42
2023-04-30T19:30:03.918Z,14.24
2023-04-30T19:32:30.353Z,14.21
2023-04-30T19:34:58.365Z,14.30
2023-04-30T19:37:25.120Z,14.07
2023-04-30T19:39:51.548Z,14.15
2023-04-30T19:42:17.948Z,14.17
2023-04-30T19:44:44.316Z,14.11
2023-04-30T19:47:10.687Z,14.04
2023-04-30T19:49:37.053Z,13.77
2023-04-30T19:52:03.545Z,13.81
2023-04-30T19:54:29.967Z,13.70
2023-04-30T19:56:57.802Z,13.71
2023-04-30T19:59:26.623Z,13.62
2023-04-30T20:01:53.478Z,13.65
2023-04-30T20:04:20.032Z,13.50
2023-04-30T20:06:47.385Z,13.37
2023-04-30T20:09:14.984Z,13.47
2023-04-30T20:11:41.374Z,13.44
2023-04-30T20:14:08.116Z,13.52
2023-04-30T20:16:34.544Z,13.45
2023-04-30T20:19:01.083Z,13.34
2023-04-30T20:21:27.750Z,13.41
2023-04-30T20:23:54.164Z,13.29
2023-04-30T20:26:21.474Z,13.42
2023-04-30T20:28:48.327Z,13.31
2023-04-30T20:31:15.059Z,13.18
2023-04-30T20:33:42.228Z,13.21
2023-04-30T20:36:08.710Z,13.21
2023-04-30T20:38:35.371Z,13.32
2023-04-30T20:41:02.072Z,13.29
2023-04-30T20:43:28.758Z,12.94
2023-04-30T20:45:58.873Z,12.99
2023-04-30T20:48:26.264Z,13.03
2023-04-30T20:50:52.687Z,13.06
2023-04-30T20:53:19.722Z,12.96
2023-04-30T20:55:46.276Z,12.85
2023-04-30T20:58:12.694Z,12.65
2023-04-30T21:00:39.167Z,12.62
2023-04-30T21:03:05.978Z,12.62
2023-04-30T21:05:32.755Z,12.42
2023-04-30T21:08:01.269Z,12.47
2023-04-30T21:10:28.554Z,12.35
2023-04-30T21:12:54.927Z,12.33
2023-04-30T21:15:21.405Z,12.45
2023-04-30T21:17:48.292Z,12.43
2023-04-30T21:20:14.872Z,12.13
2023-04-30T21:22:41.354Z,12.00
2023-04-30T21:25:10.635Z,12.15
2023-04-30T21:27:37.006Z,11.95
2023-04-30T21:30:03.752Z,11.81
2023-04-30T21:32:30.216Z,11.89
2023-04-30T21:34:56.625Z,11.91
2023-04-30T21:37:22.980Z,11.83
2023-04-30T21:39:49.372Z,11.83
2023-04-30T21:42:15.892Z,11.60
2023-04-30T21:44:42.266Z,11.50
2023-04-30T21:47:08.642Z,11.37
2023-04-30T21:49:35.645Z,11.49
2023-04-30T21:52:04.296Z,11.41
2023-04-30T21:54:30.681Z,11.45
2023-04-30T21:56:57.050Z,11.34
2023-04-30T21:59:23.557Z,11.32
2023-04-30T22:01:50.040Z,11.31
2023-04-30T22:04:16.495Z,11.37
2023-04-30T22:06:42.944Z,11.29
2023-04-30T22:09:09.452Z,11.23
2023-04-30T22:11:35.888Z,11.30
2023-04-30T22:14:03.968Z,11.34
2023-04-30T22:16:30.425Z,11.34
2023-04-30T22:18:58.796Z,11.26
2023-04-30T22:21:25.735Z,11.10
2023-04-30T22:23:52.118Z,11.25
2023-04-30T22:26:18.492Z,11.08
2023-04-30T22:28:44.903Z,11.01
2023-04-30T22:31:11.343Z,10.80
2023-04-30T22:33:38.056Z,10.71
2023-04-30T22:36:08.225Z,10.97
2023-04-30T22:38:35.226Z,10.79
2023-04-30T22:41:03.642Z,10.75
2023-04-30T22:43:30.574Z,10.72
2023-04-30T22:45:58.572Z,10.72
2023-04-30T22:48:26.692Z,10.71
2023-04-30T22:50:53.573Z,10.73
2023-04-30T22:53:19.959Z,10.83
2023-04-30T22:55:46.395Z,10.82
2023-04-30T22:58:12.864Z,10.64
2023-04-30T23:00:39.282Z,10.71
2023-04-30T23:03:05.771Z,10.46
2023-04-30T23:05:32.205Z,10.54
2023-04-30T23:07:58.584Z,10.49
2023-04-30T23:10:25.035Z,10.55
2023-04-30T23:12:55.197Z,10.50
2023-04-30T23:15:21.744Z,10.46
2023-04-30T23:17:48.144Z,10.54
2023-04-30T23:20:15.431Z,10.64
2023-04-30T23:22:41.827Z,10.54
2023-04-30T23:25:08.226Z,10.19
2023-04-30T23:27:34.607Z,10.26
2023-04-30T23:30:01.030Z,10.21
2023-04-30T23:32:27.796Z,10.09
2023-04-30T23:34:54.366Z,10.24
2023-04-30T23:37:20.933Z,10.33
2023-04-30T23:39:47.303Z,10.37
2023-04-30T23:42:13.906Z,10.32
2023-04-30T23:44:40.311Z,10.25
2023-04-30T23:47:07.045Z,10.08
2023-04-30T23:49:33.446Z,10.26
2023-04-30T23:51:59.871Z,10.18
2023-04-30T23:54:26.258Z,10.18
2023-04-30T23:56:53.199Z,10.16
2023-04-30T23:59:19.616Z,10.13
